Winnebago, Illinois
Current Conditions -  °F | °C
As of 7:15 AM on Thursday 27 Nov 2014 (Local Time) from KRFD Reporting Station
Light Snow Light Snow  
Wind Chill: 13°   Ceiling: 2900
Heat Index: 24°   Visibility: 3mi
Dew Point: 18°   Wind: 12mph
Humidity: 77%   Direction: 310°NW
Pressure: 30.33"   Gusts: NA
Location:  42.27°N, 89.24°W
Report Text: KRFD 271315Z 31010KT 3SM -SN BKN029 OVC050 M04/M08 A3033 RMK AO2 P0000 T10441078
Loading
Personal Weather Stations






























Interactive Weather Map New forecast layout! Learn more

10-Day Weather Forecast

Advertisements
Track Severe Weather on mobile